Time;durP1;ratioP1;P1;durP2;ratioP2;P2;SDS_P1;SDS_P2;PMS_P1;PMS_P2;Temp;Humidity;BMP_temperature;BMP_pressure;BME280_temperature;BME280_humidity;BME280_pressure;Samples;Min_cycle;Max_cycle;Signal;HPM_P1;HPM_P2
2022/12/10 07:35:42;;;;;;;3.17;2.93;;;19.50;53.50;;;;;;5077675;28;20522;-52
2022/12/10 07:38:08;;;;;;;3.30;2.97;;;20.10;52.20;;;;;;5068967;28;20225;-37
2022/12/10 07:40:35;;;;;;;3.43;2.80;;;20.30;51.60;;;;;;5056622;28;20197;-43
2022/12/10 07:43:01;;;;;;;5.30;2.47;;;20.50;51.50;;;;;;5062845;28;20208;-40
2022/12/10 07:45:27;;;;;;;2.57;2.37;;;20.50;52.10;;;;;;5057405;28;20229;-39
2022/12/10 07:47:54;;;;;;;3.20;2.90;;;20.60;51.60;;;;;;5052031;28;20235;-41
2022/12/10 07:50:20;;;;;;;4.47;2.70;;;20.70;52.30;;;;;;5049702;28;20202;-45
2022/12/10 07:52:47;;;;;;;3.08;2.67;;;20.70;51.70;;;;;;5065585;28;20630;-43
2022/12/10 07:55:13;;;;;;;2.95;2.65;;;20.70;51.70;;;;;;5047591;28;20205;-54
2022/12/10 07:57:40;;;;;;;10.55;9.05;;;20.80;51.70;;;;;;5045394;28;20205;-43
2022/12/10 08:00:06;;;;;;;8.90;7.35;;;19.60;41.40;;;;;;5055999;28;20201;-44
2022/12/10 08:02:32;;;;;;;7.60;6.27;;;18.60;48.40;;;;;;5049727;28;20206;-47
2022/12/10 08:04:59;;;;;;;7.13;5.38;;;19.30;48.10;;;;;;5065553;28;20221;-42
2022/12/10 08:07:25;;;;;;;5.93;5.32;;;19.80;48.80;;;;;;5048472;28;20237;-38
2022/12/10 08:09:52;;;;;;;4.95;4.30;;;20.10;48.90;;;;;;5053412;28;20202;-38
2022/12/10 08:12:18;;;;;;;6.70;4.00;;;20.30;49.10;;;;;;5064997;28;20220;-40
2022/12/10 08:14:44;;;;;;;6.13;3.50;;;20.40;49.10;;;;;;5064523;28;20211;-49
2022/12/10 08:17:11;;;;;;;4.00;3.60;;;20.50;49.50;;;;;;5050606;28;20222;-45
2022/12/10 08:19:37;;;;;;;4.63;3.42;;;20.50;49.90;;;;;;5059888;28;20649;-42
2022/12/10 08:22:04;;;;;;;4.47;3.05;;;20.60;50.10;;;;;;5047905;28;20206;-46
2022/12/10 08:24:30;;;;;;;3.40;3.10;;;20.60;50.30;;;;;;5053673;28;20239;-41
2022/12/10 08:26:56;;;;;;;3.20;2.90;;;20.60;50.30;;;;;;5063039;28;20206;-45
2022/12/10 08:29:23;;;;;;;4.80;2.90;;;20.70;50.50;;;;;;5054221;28;20198;-38
2022/12/10 08:31:49;;;;;;;4.30;2.58;;;20.70;50.40;;;;;;5053350;28;20544;-40
2022/12/10 08:34:16;;;;;;;3.13;2.85;;;20.70;50.60;;;;;;5053308;28;20697;-44
2022/12/10 08:36:42;;;;;;;3.45;2.47;;;20.80;51.00;;;;;;5054661;28;20206;-37
2022/12/10 08:39:10;;;;;;;4.22;2.47;;;20.80;51.10;;;;;;5045475;28;20205;-39
2022/12/10 08:41:36;;;;;;;2.58;2.28;;;20.90;50.80;;;;;;5053140;28;20210;-47
2022/12/10 08:44:02;;;;;;;3.80;2.03;;;20.90;50.70;;;;;;5051107;28;20221;-37
2022/12/10 08:46:29;;;;;;;3.95;2.38;;;20.90;50.90;;;;;;5040328;28;20198;-41
2022/12/10 08:48:55;;;;;;;3.15;1.85;;;20.90;50.90;;;;;;5040120;28;20201;-39
2022/12/10 08:51:22;;;;;;;3.70;1.98;;;20.90;50.90;;;;;;5050248;28;21396;-40
2022/12/10 08:53:49;;;;;;;2.90;2.40;;;20.90;50.90;;;;;;5047809;28;20208;-42
2022/12/10 08:56:15;;;;;;;4.05;1.80;;;20.90;50.90;;;;;;5041395;28;20202;-40
2022/12/10 08:58:41;;;;;;;2.63;2.10;;;21.00;51.00;;;;;;5050745;28;20316;-39
2022/12/10 09:01:08;;;;;;;3.83;2.17;;;21.00;51.40;;;;;;5038473;28;20198;-41
2022/12/10 09:03:34;;;;;;;4.30;2.00;;;21.00;51.20;;;;;;5037548;28;20280;-43
2022/12/10 09:06:01;;;;;;;2.33;2.00;;;21.10;51.20;;;;;;5044265;28;20206;-39
2022/12/10 09:08:27;;;;;;;2.10;1.88;;;21.10;51.40;;;;;;5038245;28;20887;-38
2022/12/10 09:10:54;;;;;;;2.45;1.90;;;21.10;51.90;;;;;;5051853;28;20200;-47
2022/12/10 09:13:20;;;;;;;4.68;1.88;;;21.10;51.10;;;;;;5048258;28;20205;-52
2022/12/10 09:15:47;;;;;;;2.30;2.00;;;21.10;51.40;;;;;;5037823;28;20198;-40
2022/12/10 09:18:13;;;;;;;5.40;2.60;;;21.00;51.30;;;;;;5046254;28;20224;-39
2022/12/10 09:20:39;;;;;;;3.40;1.83;;;21.10;51.60;;;;;;5047067;28;20198;-52
2022/12/10 09:23:06;;;;;;;3.95;2.10;;;21.10;51.30;;;;;;5044644;28;20194;-47
2022/12/10 09:25:32;;;;;;;2.75;1.88;;;21.10;51.30;;;;;;5033702;28;20589;-48
2022/12/10 09:27:59;;;;;;;4.05;2.08;;;21.10;51.30;;;;;;5041894;28;20225;-49
2022/12/10 09:30:25;;;;;;;2.67;2.08;;;21.10;51.20;;;;;;5039717;28;20208;-49
2022/12/10 09:32:51;;;;;;;5.03;1.95;;;21.10;51.20;;;;;;5030742;28;22476;-41
2022/12/10 09:35:18;;;;;;;2.30;2.10;;;21.10;51.20;;;;;;5052556;28;20213;-42
2022/12/10 09:37:44;;;;;;;2.72;1.92;;;21.10;51.20;;;;;;5040043;28;20305;-51
2022/12/10 09:40:11;;;;;;;2.60;2.38;;;21.00;51.20;;;;;;5034192;28;20206;-41
2022/12/10 09:42:37;;;;;;;3.30;2.00;;;21.00;51.40;;;;;;5040646;28;20206;-46
2022/12/10 09:45:04;;;;;;;3.42;2.17;;;21.00;51.50;;;;;;4964214;28;20244;-52
2022/12/10 09:47:30;;;;;;;2.53;1.98;;;21.00;52.20;;;;;;4983225;28;20234;-44
2022/12/10 09:49:56;;;;;;;2.97;2.25;;;21.10;51.40;;;;;;4975902;28;20219;-45
2022/12/10 09:52:23;;;;;;;3.33;2.15;;;21.00;51.30;;;;;;4973321;28;20200;-50
2022/12/10 09:54:49;;;;;;;3.83;2.00;;;21.00;51.30;;;;;;4973790;28;20291;-53
2022/12/10 09:57:16;;;;;;;2.75;2.20;;;21.00;51.40;;;;;;4972285;28;20224;-39
2022/12/10 09:59:42;;;;;;;3.03;1.92;;;21.00;51.40;;;;;;4981139;28;20215;-53
2022/12/10 10:02:09;;;;;;;2.40;2.20;;;21.00;51.60;;;;;;4983727;28;20226;-39
2022/12/10 10:04:35;;;;;;;3.33;2.15;;;21.10;51.60;;;;;;4986689;28;20231;-41
2022/12/10 10:07:01;;;;;;;2.35;2.13;;;21.10;51.30;;;;;;4980696;28;22517;-40
2022/12/10 10:09:28;;;;;;;2.83;1.77;;;21.10;51.40;;;;;;4960792;28;20701;-42
2022/12/10 10:11:54;;;;;;;3.70;2.33;;;21.10;51.40;;;;;;4969544;28;20215;-40
2022/12/10 10:14:21;;;;;;;4.05;2.42;;;21.10;51.40;;;;;;4982437;28;20212;-41
2022/12/10 10:16:47;;;;;;;5.53;3.10;;;21.10;51.30;;;;;;4971429;28;20248;-38
2022/12/10 10:19:14;;;;;;;3.47;2.75;;;21.00;51.30;;;;;;4984383;28;20200;-49
2022/12/10 10:21:40;;;;;;;4.05;2.40;;;21.00;51.00;;;;;;4973637;28;20201;-41
2022/12/10 10:24:07;;;;;;;3.05;2.40;;;21.00;51.10;;;;;;4973998;28;20208;-44
2022/12/10 10:26:33;;;;;;;2.47;2.15;;;21.00;51.20;;;;;;4976363;28;20231;-51
2022/12/10 10:29:00;;;;;;;4.07;2.90;;;21.00;51.20;;;;;;4980403;28;20203;-51
2022/12/10 10:31:26;;;;;;;3.65;2.10;;;21.00;51.20;;;;;;4973026;28;20200;-44
2022/12/10 10:33:56;;;;;;;3.22;2.63;;;21.00;51.20;;;;;;4973797;28;20212;-51
2022/12/10 10:36:22;;;;;;;2.95;2.20;;;21.00;51.30;;;;;;4972709;28;20220;-43
2022/12/10 10:38:49;;;;;;;3.08;2.10;;;21.00;51.10;;;;;;4981199;28;20574;-52
2022/12/10 10:41:15;;;;;;;3.58;2.08;;;21.00;51.10;;;;;;4976776;28;20208;-50
2022/12/10 10:43:42;;;;;;;3.25;2.53;;;21.00;51.10;;;;;;4986515;28;20200;-51
2022/12/10 10:46:08;;;;;;;2.40;2.13;;;21.00;51.20;;;;;;4972605;28;20287;-46
2022/12/10 10:48:34;;;;;;;3.97;2.47;;;21.00;51.20;;;;;;4991946;28;20230;-49
2022/12/10 10:51:01;;;;;;;3.15;2.40;;;21.00;51.20;;;;;;4985562;28;20255;-53
2022/12/10 10:53:28;;;;;;;3.50;2.40;;;21.10;51.30;;;;;;4975715;28;20204;-45
2022/12/10 10:55:54;;;;;;;2.50;2.13;;;21.10;51.40;;;;;;4980817;28;20277;-43
2022/12/10 10:58:21;;;;;;;3.85;2.67;;;21.00;51.30;;;;;;4975368;28;20351;-50
2022/12/10 11:00:47;;;;;;;3.85;2.33;;;21.00;51.30;;;;;;4973775;28;20201;-46
2022/12/10 11:03:14;;;;;;;3.28;2.97;;;21.00;51.30;;;;;;4974441;28;20229;-52
2022/12/10 11:05:40;;;;;;;4.78;2.72;;;21.10;51.40;;;;;;4978930;28;20246;-49
2022/12/10 11:08:07;;;;;;;5.10;2.30;;;21.00;51.30;;;;;;4972641;28;20211;-44
2022/12/10 11:10:33;;;;;;;3.45;2.45;;;21.00;51.40;;;;;;4978007;28;20211;-42
2022/12/10 11:13:00;;;;;;;4.03;2.60;;;21.00;51.50;;;;;;4982565;28;20563;-47
2022/12/10 11:15:27;;;;;;;2.78;2.53;;;21.00;51.50;;;;;;4980102;28;20348;-53
2022/12/10 11:17:53;;;;;;;4.00;3.30;;;21.00;51.60;;;;;;4991866;28;20222;-40
2022/12/10 11:20:20;;;;;;;2.88;2.58;;;21.00;51.60;;;;;;4985552;28;20672;-42
2022/12/10 11:22:47;;;;;;;2.92;2.65;;;21.00;51.50;;;;;;4977186;28;20208;-43
2022/12/10 11:25:13;;;;;;;4.07;2.55;;;21.00;51.60;;;;;;4986762;28;20235;-51
2022/12/10 11:27:40;;;;;;;2.92;2.33;;;21.00;51.70;;;;;;4980566;28;20204;-47
2022/12/10 11:30:06;;;;;;;2.45;2.22;;;21.00;51.60;;;;;;4977522;28;20211;-45
2022/12/10 11:32:33;;;;;;;4.28;2.75;;;21.00;51.70;;;;;;4971889;28;20214;-53
2022/12/10 11:34:59;;;;;;;2.83;2.60;;;21.00;51.70;;;;;;4974893;28;20220;-40
2022/12/10 11:37:25;;;;;;;4.45;2.70;;;21.00;51.70;;;;;;4975791;28;20665;-46
2022/12/10 11:39:52;;;;;;;3.00;2.25;;;21.00;51.90;;;;;;4974093;28;20287;-39
2022/12/10 11:42:18;;;;;;;4.82;2.40;;;21.00;52.10;;;;;;4980356;28;20542;-50
2022/12/10 11:44:45;;;;;;;2.90;2.58;;;21.00;51.80;;;;;;4971981;28;20878;-45
2022/12/10 11:47:11;;;;;;;2.70;2.40;;;21.00;51.80;;;;;;4975523;28;20215;-48
2022/12/10 11:49:38;;;;;;;2.72;2.25;;;21.00;51.80;;;;;;4973534;28;20572;-53
2022/12/10 11:52:04;;;;;;;3.95;2.35;;;21.00;51.80;;;;;;4967191;28;20218;-42
2022/12/10 11:54:31;;;;;;;4.45;2.10;;;21.00;51.80;;;;;;4963651;28;20291;-42
2022/12/10 11:56:57;;;;;;;3.20;2.90;;;21.00;51.90;;;;;;4983812;28;20207;-48
2022/12/10 11:59:23;;;;;;;5.68;2.83;;;21.10;51.70;;;;;;4970492;28;20204;-43
2022/12/10 12:01:50;;;;;;;3.05;2.75;;;21.10;51.80;;;;;;4972139;28;20216;-39
2022/12/10 12:04:16;;;;;;;4.05;2.72;;;21.10;51.80;;;;;;4976252;28;20207;-49
2022/12/10 12:06:43;;;;;;;3.67;2.50;;;21.10;51.80;;;;;;4972201;28;20209;-44
2022/12/10 12:09:09;;;;;;;3.45;2.35;;;21.00;51.70;;;;;;4975819;28;20201;-45
2022/12/10 12:11:35;;;;;;;2.85;2.40;;;21.10;51.70;;;;;;4981152;28;20211;-42
2022/12/10 12:14:02;;;;;;;2.95;2.60;;;21.00;51.60;;;;;;4971806;28;20547;-46
2022/12/10 12:16:29;;;;;;;2.95;2.60;;;21.10;51.80;;;;;;4969624;28;20234;-43
2022/12/10 12:18:55;;;;;;;3.38;3.08;;;21.20;52.30;;;;;;4972632;28;20220;-52
2022/12/10 12:21:22;;;;;;;3.67;2.97;;;21.20;51.50;;;;;;4975539;28;20207;-42
2022/12/10 12:23:48;;;;;;;12.80;8.13;;;21.20;51.60;;;;;;4974539;28;20196;-48
2022/12/10 12:26:14;;;;;;;25.70;13.98;;;21.30;51.60;;;;;;4982180;28;20244;-39
2022/12/10 12:28:41;;;;;;;19.80;10.85;;;21.30;51.60;;;;;;4979867;28;20204;-43
2022/12/10 12:31:07;;;;;;;23.98;12.35;;;21.20;51.70;;;;;;4974404;28;20211;-51
2022/12/10 12:33:34;;;;;;;26.35;13.95;;;21.30;51.30;;;;;;4972984;28;20221;-53
2022/12/10 12:36:00;;;;;;;26.25;14.45;;;21.30;51.30;;;;;;4977405;28;20220;-47
2022/12/10 12:38:27;;;;;;;32.72;16.08;;;21.20;51.20;;;;;;4982574;28;20200;-59
2022/12/10 12:40:53;;;;;;;23.08;14.80;;;21.20;51.00;;;;;;4985303;28;20199;-47
2022/12/10 12:43:19;;;;;;;29.20;13.82;;;21.20;51.00;;;;;;4981764;28;20220;-54
2022/12/10 12:45:46;;;;;;;21.85;14.00;;;21.20;50.90;;;;;;4986672;28;20236;-53
2022/12/10 12:48:12;;;;;;;25.38;14.90;;;21.20;50.90;;;;;;4978719;28;20227;-38
2022/12/10 12:50:39;;;;;;;24.98;14.70;;;21.20;50.90;;;;;;4981064;28;20201;-54
2022/12/10 12:53:05;;;;;;;26.58;14.13;;;21.20;50.90;;;;;;4975290;28;20201;-46
2022/12/10 12:55:31;;;;;;;25.65;14.10;;;21.20;50.90;;;;;;4983354;28;20242;-49
2022/12/10 12:57:58;;;;;;;24.13;14.70;;;21.20;50.90;;;;;;4983612;28;20213;-43
2022/12/10 13:00:24;;;;;;;27.98;14.43;;;21.10;50.80;;;;;;4990169;28;20657;-45
2022/12/10 13:02:51;;;;;;;22.15;13.85;;;21.10;50.70;;;;;;4986593;28;20201;-52
2022/12/10 13:05:18;;;;;;;23.60;13.23;;;21.10;50.80;;;;;;4977688;28;20247;-49
2022/12/10 13:07:45;;;;;;;24.58;13.77;;;21.10;50.70;;;;;;4977519;28;20204;-43
2022/12/10 13:10:12;;;;;;;23.40;13.55;;;21.10;50.60;;;;;;4980379;28;20446;-39
2022/12/10 13:12:38;;;;;;;21.35;12.45;;;21.10;50.70;;;;;;4982078;28;20518;-44
2022/12/10 13:15:05;;;;;;;20.58;12.65;;;21.10;50.60;;;;;;4977506;28;20245;-44
2022/12/10 13:17:31;;;;;;;22.25;12.40;;;21.10;50.60;;;;;;4976422;28;20253;-50
2022/12/10 13:19:58;;;;;;;23.60;12.48;;;21.10;50.50;;;;;;4981258;28;20204;-40
2022/12/10 13:22:24;;;;;;;21.63;11.98;;;21.10;50.40;;;;;;4981559;28;21020;-45
2022/12/10 13:24:51;;;;;;;19.55;11.48;;;21.10;50.30;;;;;;4977435;28;20292;-57
2022/12/10 13:27:17;;;;;;;23.42;13.15;;;21.10;50.20;;;;;;4980978;28;20200;-46
2022/12/10 13:29:44;;;;;;;21.27;12.10;;;21.10;49.80;;;;;;4986654;28;20215;-44
2022/12/10 13:32:10;;;;;;;21.65;12.02;;;21.10;49.80;;;;;;4983923;28;20669;-51
2022/12/10 13:34:37;;;;;;;19.02;11.10;;;21.10;49.80;;;;;;4976266;28;20232;-38
2022/12/10 13:37:03;;;;;;;16.30;10.48;;;21.10;49.70;;;;;;4979055;28;20861;-47
2022/12/10 13:39:29;;;;;;;17.60;10.82;;;21.10;49.70;;;;;;4977420;28;20663;-44
2022/12/10 13:44:40;;;;;;;16.65;10.63;;;21.10;49.80;;;;;;4978540;28;20582;-44
2022/12/10 13:47:07;;;;;;;15.13;10.63;;;21.10;49.70;;;;;;4985033;28;20544;-44
2022/12/10 13:49:33;;;;;;;19.25;9.88;;;21.10;49.80;;;;;;4978226;28;20546;-45
2022/12/10 13:51:59;;;;;;;20.27;10.63;;;21.20;49.90;;;;;;4980046;28;20208;-39
2022/12/10 13:54:26;;;;;;;14.90;9.93;;;21.20;49.80;;;;;;4975151;28;20224;-47
2022/12/10 13:56:52;;;;;;;17.35;10.07;;;21.20;49.80;;;;;;4976103;28;20208;-45
2022/12/10 13:59:19;;;;;;;21.63;10.88;;;21.20;49.50;;;;;;4977465;28;20204;-41
2022/12/10 14:01:45;;;;;;;17.60;9.93;;;21.20;49.30;;;;;;4984195;28;20580;-46
2022/12/10 14:04:12;;;;;;;15.82;9.30;;;21.10;49.20;;;;;;4984909;28;20282;-44
2022/12/10 14:06:38;;;;;;;15.38;10.30;;;21.10;49.10;;;;;;4975427;28;20259;-45
2022/12/10 14:09:05;;;;;;;14.90;8.95;;;21.10;49.10;;;;;;4973591;28;20204;-53
2022/12/10 14:11:31;;;;;;;15.25;8.77;;;21.10;49.10;;;;;;4973272;28;20231;-38
2022/12/10 14:13:58;;;;;;;14.43;8.90;;;21.10;49.20;;;;;;4975278;28;20270;-54
2022/12/10 14:16:25;;;;;;;16.85;9.40;;;21.10;48.90;;;;;;4974773;28;20218;-49
2022/12/10 14:18:51;;;;;;;12.88;9.20;;;21.10;49.00;;;;;;4987003;28;20268;-52
2022/12/10 14:21:18;;;;;;;17.88;9.40;;;21.10;49.00;;;;;;4976444;28;20203;-54
2022/12/10 14:23:44;;;;;;;17.52;9.60;;;21.10;48.90;;;;;;4981829;28;20225;-54
2022/12/10 14:26:11;;;;;;;15.35;9.88;;;21.10;48.80;;;;;;4978701;28;20234;-51
2022/12/10 14:28:37;;;;;;;14.48;9.50;;;21.10;48.60;;;;;;4980261;28;20201;-50
2022/12/10 14:31:04;;;;;;;13.57;8.73;;;21.00;48.60;;;;;;4981206;28;20208;-40
2022/12/10 14:33:30;;;;;;;15.70;9.05;;;21.10;48.60;;;;;;4972331;28;20251;-46
2022/12/10 14:35:58;;;;;;;12.80;9.00;;;21.10;48.60;;;;;;4973538;28;20245;-48
2022/12/10 14:38:24;;;;;;;15.85;9.25;;;21.10;48.60;;;;;;4977609;28;20212;-50
2022/12/10 14:40:51;;;;;;;15.73;9.13;;;21.10;48.50;;;;;;4978740;28;20204;-57
2022/12/10 14:43:17;;;;;;;13.70;8.80;;;21.00;48.40;;;;;;4972378;28;20247;-48
2022/12/10 14:45:44;;;;;;;15.68;9.00;;;21.00;48.30;;;;;;4977293;28;20603;-49
2022/12/10 14:48:10;;;;;;;13.52;8.48;;;21.00;48.10;;;;;;4975370;28;20247;-51
2022/12/10 14:50:36;;;;;;;12.27;8.35;;;21.00;48.20;;;;;;4980534;28;20224;-40
2022/12/10 14:53:03;;;;;;;11.32;7.80;;;21.00;48.10;;;;;;4983752;28;20224;-49
2022/12/10 14:55:29;;;;;;;13.45;8.30;;;21.00;48.30;;;;;;4972867;28;20240;-51
2022/12/10 14:57:56;;;;;;;12.35;7.65;;;21.00;48.20;;;;;;4980556;28;20212;-55
2022/12/10 15:00:23;;;;;;;13.30;7.57;;;21.10;48.10;;;;;;4973911;28;20208;-48
2022/12/10 15:02:49;;;;;;;11.60;8.52;;;21.10;48.10;;;;;;4971475;28;20200;-42
2022/12/10 15:05:16;;;;;;;12.68;7.32;;;21.00;48.00;;;;;;4973220;28;20935;-47
2022/12/10 15:07:42;;;;;;;20.95;17.95;;;21.00;47.80;;;;;;4979001;28;20207;-47
2022/12/10 15:10:09;;;;;;;27.45;20.80;;;17.30;35.00;;;;;;4986023;28;20295;-56
2022/12/10 15:12:35;;;;;;;27.63;21.55;;;15.30;43.20;;;;;;4974528;28;20283;-43
2022/12/10 15:15:02;;;;;;;33.63;25.30;;;17.00;44.60;;;;;;4974574;28;20204;-42
2022/12/10 15:17:28;;;;;;;32.00;23.63;;;18.20;45.90;;;;;;4976852;28;20240;-40
2022/12/10 15:19:55;;;;;;;31.75;22.27;;;19.00;46.50;;;;;;4973360;28;20220;-58
2022/12/10 15:22:21;;;;;;;28.95;21.65;;;19.50;45.40;;;;;;4971422;28;20254;-46
2022/12/10 15:24:47;;;;;;;28.70;21.33;;;19.80;45.40;;;;;;4974941;28;20208;-51
2022/12/10 15:27:14;;;;;;;29.30;21.27;;;20.10;46.20;;;;;;4976897;28;20243;-46
2022/12/10 15:29:40;;;;;;;23.75;19.33;;;20.20;46.80;;;;;;4973666;28;20215;-58
2022/12/10 15:32:08;;;;;;;27.83;20.67;;;20.30;46.40;;;;;;4972945;28;20204;-49
2022/12/10 15:34:34;;;;;;;26.30;19.42;;;20.30;46.60;;;;;;4976452;28;20218;-46
2022/12/10 15:37:01;;;;;;;26.38;18.52;;;20.50;46.80;;;;;;4975898;28;20209;-45
2022/12/10 15:39:27;;;;;;;26.92;18.55;;;20.50;47.10;;;;;;4972780;28;20853;-52
2022/12/10 15:41:54;;;;;;;26.08;18.65;;;20.50;47.10;;;;;;4979783;28;20208;-44
2022/12/10 15:44:20;;;;;;;23.27;18.13;;;20.60;47.30;;;;;;4991347;28;20228;-51
2022/12/10 15:46:47;;;;;;;25.70;18.42;;;20.60;47.40;;;;;;4988421;28;20234;-46
2022/12/10 15:49:14;;;;;;;21.38;16.77;;;20.60;47.40;;;;;;4991590;28;20273;-40
2022/12/10 15:51:40;;;;;;;26.08;17.55;;;20.70;47.60;;;;;;4984615;28;20664;-45
2022/12/10 15:54:07;;;;;;;27.33;17.85;;;20.80;47.60;;;;;;4992320;28;20230;-40
2022/12/10 15:56:33;;;;;;;22.45;16.85;;;20.80;47.70;;;;;;4973877;28;20299;-39
2022/12/10 15:59:00;;;;;;;24.52;17.00;;;20.80;47.40;;;;;;4980052;28;21113;-42
2022/12/10 16:01:26;;;;;;;25.63;17.58;;;20.80;47.10;;;;;;4988261;28;20236;-40
2022/12/10 16:03:53;;;;;;;24.58;16.55;;;20.80;47.60;;;;;;4976266;28;20228;-40
2022/12/10 16:06:19;;;;;;;21.90;15.52;;;20.90;47.60;;;;;;4979241;28;20228;-53
2022/12/10 16:08:46;;;;;;;24.25;16.20;;;20.90;47.50;;;;;;4987588;28;20231;-44
2022/12/10 16:11:12;;;;;;;24.08;16.98;;;20.90;47.60;;;;;;4978731;28;20243;-41
2022/12/10 16:13:40;;;;;;;26.33;15.93;;;20.90;47.70;;;;;;4982059;28;20238;-52
2022/12/10 16:16:06;;;;;;;23.02;16.88;;;20.90;47.90;;;;;;4981047;28;20220;-47
